Time;durP1;ratioP1;P1;durP2;ratioP2;P2;SDS_P1;SDS_P2;PMS_P1;PMS_P2;Temp;Humidity;BMP_temperature;BMP_pressure;BME280_temperature;BME280_humidity;BME280_pressure;Samples;Min_cycle;Max_cycle;Signal;HPM_P1;HPM_P2
2022/11/20 00:01:55;;;;;;;26.27;16.75;;;;;;;;;;5051585;28;20174;-66
2022/11/20 00:04:21;;;;;;;22.95;15.43;;;;;;;;;;5050271;28;20044;-66
2022/11/20 00:06:47;;;;;;;20.48;13.93;;;;;;;;;;5055508;28;20056;-66
2022/11/20 00:09:13;;;;;;;19.77;13.73;;;;;;;;;;5040161;28;20040;-66
2022/11/20 00:11:39;;;;;;;18.48;13.00;;;;;;;;;;5053511;28;20079;-66
2022/11/20 00:14:05;;;;;;;16.88;12.35;;;;;;;;;;5053197;28;20763;-66
2022/11/20 00:16:32;;;;;;;18.48;12.68;;;;;;;;;;5030642;28;20644;-67
2022/11/20 00:18:58;;;;;;;18.65;13.25;;;;;;;;;;5045128;28;20048;-67
2022/11/20 00:21:26;;;;;;;17.58;12.20;;;;;;;;;;5046970;28;20049;-66
2022/11/20 00:23:53;;;;;;;17.17;12.20;;;;;;;;;;5053573;28;20044;-66
2022/11/20 00:26:20;;;;;;;19.98;11.90;;;;;;;;;;5055297;28;20048;-66
2022/11/20 00:28:51;;;;;;;16.30;11.75;;;;;;;;;;5052487;28;20040;-67
2022/11/20 00:31:17;;;;;;;16.70;11.40;;;;;;;;;;5036984;28;20113;-68
2022/11/20 00:33:44;;;;;;;16.48;12.00;;;;;;;;;;5042588;28;20132;-67
2022/11/20 00:36:11;;;;;;;16.98;11.73;;;;;;;;;;5043271;28;20051;-67
2022/11/20 00:38:38;;;;;;;19.33;11.63;;;;;;;;;;5053005;28;20044;-67
2022/11/20 00:41:05;;;;;;;17.80;12.38;;;;;;;;;;5053464;28;20551;-67
2022/11/20 00:43:31;;;;;;;18.05;11.70;;;;;;;;;;5051653;28;20048;-67
2022/11/20 00:46:01;;;;;;;16.52;11.45;;;;;;;;;;5050526;28;23359;-67
2022/11/20 00:48:27;;;;;;;15.73;10.70;;;;;;;;;;5052787;28;20080;-67
2022/11/20 00:50:54;;;;;;;16.35;11.15;;;;;;;;;;5049493;28;20083;-67
2022/11/20 00:53:21;;;;;;;16.23;12.02;;;;;;;;;;5054237;28;20068;-67
2022/11/20 00:56:06;;;;;;;19.10;12.15;;;;;;;;;;5053937;28;20063;-67
2022/11/20 00:58:33;;;;;;;17.27;11.73;;;;;;;;;;5037494;28;20124;-67
2022/11/20 01:01:03;;;;;;;18.45;12.20;;;;;;;;;;5038193;28;20862;-67
2022/11/20 01:03:31;;;;;;;18.23;11.82;;;;;;;;;;5048120;28;20048;-67
2022/11/20 01:06:00;;;;;;;15.63;11.48;;;;;;;;;;5055719;28;20135;-67
2022/11/20 01:08:29;;;;;;;16.05;12.57;;;;;;;;;;5034920;28;20792;-67
2022/11/20 01:10:59;;;;;;;17.67;11.70;;;;;;;;;;5051437;28;20075;-66
2022/11/20 01:13:37;;;;;;;16.05;11.35;;;;;;;;;;5050270;28;20036;-66
2022/11/20 01:16:11;;;;;;;16.13;10.98;;;;;;;;;;5055124;28;20045;-67
2022/11/20 01:18:38;;;;;;;16.00;11.20;;;;;;;;;;5043551;28;20053;-67
2022/11/20 01:21:08;;;;;;;16.10;11.20;;;;;;;;;;5052655;28;20044;-67
2022/11/20 01:23:35;;;;;;;19.17;12.02;;;;;;;;;;5026144;28;20054;-67
2022/11/20 01:26:02;;;;;;;15.52;11.10;;;;;;;;;;5052452;28;20036;-68
2022/11/20 01:28:29;;;;;;;14.90;10.70;;;;;;;;;;5044489;28;20053;-67
2022/11/20 01:30:55;;;;;;;14.82;10.90;;;;;;;;;;5051082;28;20064;-67
2022/11/20 01:33:21;;;;;;;15.35;10.43;;;;;;;;;;5033155;28;20064;-67
2022/11/20 01:35:47;;;;;;;14.52;10.35;;;;;;;;;;5050996;28;20607;-67
2022/11/20 01:38:13;;;;;;;14.30;9.65;;;;;;;;;;5055867;28;20071;-67
2022/11/20 01:40:39;;;;;;;14.45;9.88;;;;;;;;;;5055278;28;20087;-67
2022/11/20 01:43:22;;;;;;;13.43;9.98;;;;;;;;;;5055478;28;20123;-68
2022/11/20 01:45:51;;;;;;;14.35;10.07;;;;;;;;;;5057058;28;20109;-67
2022/11/20 01:48:18;;;;;;;17.17;11.05;;;;;;;;;;5057317;28;20052;-68
2022/11/20 01:50:45;;;;;;;15.07;11.13;;;;;;;;;;5055412;28;20040;-68
2022/11/20 01:53:14;;;;;;;13.65;9.77;;;;;;;;;;5056963;28;20051;-67
2022/11/20 01:55:50;;;;;;;13.10;9.32;;;;;;;;;;5053794;28;20048;-69
2022/11/20 01:58:21;;;;;;;13.17;9.07;;;;;;;;;;5067130;28;20221;-68
2022/11/20 02:00:47;;;;;;;13.63;9.75;;;;;;;;;;5054612;28;20311;-69
2022/11/20 02:03:16;;;;;;;13.35;9.70;;;;;;;;;;5058303;28;20110;-68
2022/11/20 02:05:46;;;;;;;12.63;8.45;;;;;;;;;;5056736;28;20048;-69
2022/11/20 02:08:12;;;;;;;13.55;9.15;;;;;;;;;;5052065;28;20129;-68
2022/11/20 02:10:38;;;;;;;14.55;9.10;;;;;;;;;;5055560;28;20052;-68
2022/11/20 02:15:50;;;;;;;11.98;9.10;;;;;;;;;;5053949;28;20045;-68
2022/11/20 02:18:17;;;;;;;14.15;9.90;;;;;;;;;;5054846;28;20044;-68
2022/11/20 02:20:45;;;;;;;13.25;9.13;;;;;;;;;;5055708;28;20795;-68
2022/11/20 02:23:30;;;;;;;17.00;9.80;;;;;;;;;;5051885;28;20056;-68
2022/11/20 02:25:56;;;;;;;15.30;10.18;;;;;;;;;;5050993;28;20041;-68
2022/11/20 02:28:22;;;;;;;14.98;9.70;;;;;;;;;;5051999;28;20048;-68
2022/11/20 02:30:48;;;;;;;14.70;9.73;;;;;;;;;;5048996;28;20057;-68
2022/11/20 02:33:14;;;;;;;13.75;9.70;;;;;;;;;;5048958;28;20588;-67
2022/11/20 02:35:42;;;;;;;13.68;10.30;;;;;;;;;;5058953;28;21234;-68
2022/11/20 02:38:08;;;;;;;14.77;9.77;;;;;;;;;;5056132;28;20052;-68
2022/11/20 02:40:34;;;;;;;14.50;9.70;;;;;;;;;;5055796;28;20045;-68
2022/11/20 02:43:00;;;;;;;14.38;9.55;;;;;;;;;;5038632;28;20063;-68
2022/11/20 02:45:26;;;;;;;13.65;9.85;;;;;;;;;;5058824;28;21429;-68
2022/11/20 02:47:53;;;;;;;13.55;9.25;;;;;;;;;;5058087;28;20071;-68
2022/11/20 02:50:19;;;;;;;14.35;9.45;;;;;;;;;;5060812;28;20099;-68
2022/11/20 02:52:45;;;;;;;13.18;9.38;;;;;;;;;;5061163;28;20051;-68
2022/11/20 02:55:11;;;;;;;12.70;9.52;;;;;;;;;;5060198;28;20093;-68
2022/11/20 02:57:37;;;;;;;12.55;8.48;;;;;;;;;;5059864;28;20048;-69
2022/11/20 03:00:04;;;;;;;11.43;8.05;;;;;;;;;;5041509;28;20068;-68
2022/11/20 03:02:31;;;;;;;12.20;8.10;;;;;;;;;;5060358;28;20051;-68
2022/11/20 03:04:57;;;;;;;12.07;8.35;;;;;;;;;;5055470;28;20104;-68
2022/11/20 03:07:23;;;;;;;12.02;8.85;;;;;;;;;;5048186;28;20129;-68
2022/11/20 03:09:49;;;;;;;12.98;8.15;;;;;;;;;;5050528;28;20104;-68
2022/11/20 03:12:16;;;;;;;12.48;9.30;;;;;;;;;;5056124;28;20487;-68
2022/11/20 03:14:42;;;;;;;11.75;8.55;;;;;;;;;;5058920;28;20087;-68
2022/11/20 03:17:08;;;;;;;11.95;9.57;;;;;;;;;;5037722;28;20048;-68
2022/11/20 03:19:34;;;;;;;11.13;8.50;;;;;;;;;;5056294;28;20044;-68
2022/11/20 03:22:00;;;;;;;13.15;8.32;;;;;;;;;;5053411;28;20048;-70
2022/11/20 03:24:27;;;;;;;12.65;8.82;;;;;;;;;;5058040;28;20049;-68
2022/11/20 03:26:53;;;;;;;10.05;8.18;;;;;;;;;;5050105;28;20048;-68
2022/11/20 03:29:19;;;;;;;13.43;8.57;;;;;;;;;;5046521;28;20041;-68
2022/11/20 03:31:45;;;;;;;10.88;7.80;;;;;;;;;;5064251;28;20037;-69
2022/11/20 03:34:11;;;;;;;11.25;7.57;;;;;;;;;;5054258;28;20104;-69
2022/11/20 03:36:38;;;;;;;10.48;7.28;;;;;;;;;;5054383;28;20049;-68
2022/11/20 03:39:05;;;;;;;12.32;8.20;;;;;;;;;;5053199;28;20040;-69
2022/11/20 03:41:31;;;;;;;11.93;7.35;;;;;;;;;;5054161;28;20040;-68
2022/11/20 03:43:59;;;;;;;10.50;7.63;;;;;;;;;;5047573;28;20064;-68
2022/11/20 03:46:26;;;;;;;11.13;8.07;;;;;;;;;;5054143;28;20049;-67
2022/11/20 03:48:52;;;;;;;13.23;8.75;;;;;;;;;;5039449;28;20098;-67
2022/11/20 03:51:18;;;;;;;13.23;8.20;;;;;;;;;;5056496;28;20055;-67
2022/11/20 03:53:45;;;;;;;14.35;10.95;;;;;;;;;;5057280;28;20049;-67
2022/11/20 03:56:12;;;;;;;12.57;9.23;;;;;;;;;;5049738;28;21285;-67
2022/11/20 03:58:41;;;;;;;15.18;9.13;;;;;;;;;;5056847;28;20048;-67
2022/11/20 04:01:08;;;;;;;13.95;9.32;;;;;;;;;;5057473;28;20049;-67
2022/11/20 04:03:35;;;;;;;13.57;9.35;;;;;;;;;;5058296;28;20052;-68
2022/11/20 04:06:09;;;;;;;12.48;8.80;;;;;;;;;;5048490;28;20056;-67
2022/11/20 04:08:35;;;;;;;14.73;8.77;;;;;;;;;;5057960;28;20087;-67
2022/11/20 04:11:09;;;;;;;13.25;8.30;;;;;;;;;;5057087;28;20059;-68
2022/11/20 04:13:35;;;;;;;11.70;8.57;;;;;;;;;;5055919;28;20063;-67
2022/11/20 04:16:01;;;;;;;11.77;8.48;;;;;;;;;;5057497;28;20052;-68
2022/11/20 04:18:27;;;;;;;12.32;8.13;;;;;;;;;;5058537;28;20064;-68
2022/11/20 04:20:53;;;;;;;10.73;8.13;;;;;;;;;;5055122;28;20051;-68
2022/11/20 04:23:19;;;;;;;13.80;8.68;;;;;;;;;;5047609;28;20044;-67
2022/11/20 04:25:45;;;;;;;10.82;7.38;;;;;;;;;;5054303;28;20048;-68
2022/11/20 04:28:11;;;;;;;11.95;8.55;;;;;;;;;;5057994;28;20080;-68
2022/11/20 04:30:37;;;;;;;12.88;8.75;;;;;;;;;;5053723;28;20076;-68
2022/11/20 04:33:03;;;;;;;13.73;9.32;;;;;;;;;;5053937;28;20045;-67
2022/11/20 04:35:29;;;;;;;11.32;8.85;;;;;;;;;;5055720;28;20060;-68
2022/11/20 04:37:55;;;;;;;13.52;9.63;;;;;;;;;;5054348;28;20052;-68
2022/11/20 04:40:21;;;;;;;14.38;9.52;;;;;;;;;;5025577;28;20052;-67
2022/11/20 04:42:47;;;;;;;14.65;10.00;;;;;;;;;;5055880;28;20511;-67
2022/11/20 04:45:13;;;;;;;13.02;9.48;;;;;;;;;;5039427;28;20645;-67
2022/11/20 04:47:39;;;;;;;13.27;9.60;;;;;;;;;;5055486;28;20270;-66
2022/11/20 04:50:06;;;;;;;13.48;10.18;;;;;;;;;;5039167;28;20119;-66
2022/11/20 04:52:32;;;;;;;14.07;9.80;;;;;;;;;;5056240;28;20292;-67
2022/11/20 04:54:58;;;;;;;14.60;10.95;;;;;;;;;;5057666;28;20063;-67
2022/11/20 04:57:24;;;;;;;15.15;10.60;;;;;;;;;;5055381;28;20055;-67
2022/11/20 04:59:50;;;;;;;14.75;10.50;;;;;;;;;;5056528;28;20614;-67
2022/11/20 05:02:16;;;;;;;17.38;11.13;;;;;;;;;;5054557;28;20376;-66
2022/11/20 05:04:42;;;;;;;14.55;10.32;;;;;;;;;;5056668;28;20468;-66
2022/11/20 05:07:08;;;;;;;17.48;11.10;;;;;;;;;;5055356;28;20492;-67
2022/11/20 05:09:34;;;;;;;14.65;9.93;;;;;;;;;;5057854;28;20065;-66
2022/11/20 05:12:00;;;;;;;14.43;9.90;;;;;;;;;;5054249;28;20183;-66
2022/11/20 05:14:27;;;;;;;14.02;10.00;;;;;;;;;;5038609;28;20063;-67
2022/11/20 05:16:53;;;;;;;12.63;9.02;;;;;;;;;;5037658;28;20055;-66
2022/11/20 05:19:19;;;;;;;13.23;9.70;;;;;;;;;;5059842;28;20070;-67
2022/11/20 05:21:45;;;;;;;13.55;8.82;;;;;;;;;;5058182;28;20045;-67
2022/11/20 05:24:11;;;;;;;11.73;8.88;;;;;;;;;;5058571;28;20048;-67
2022/11/20 05:26:37;;;;;;;13.52;9.63;;;;;;;;;;5054885;28;20049;-67
2022/11/20 05:29:03;;;;;;;12.48;9.07;;;;;;;;;;5057456;28;20100;-67
2022/11/20 05:31:29;;;;;;;13.70;9.70;;;;;;;;;;5043645;28;20059;-67
2022/11/20 05:33:56;;;;;;;12.88;8.95;;;;;;;;;;5052171;28;20111;-67
2022/11/20 05:36:23;;;;;;;12.18;9.18;;;;;;;;;;5060376;28;20086;-67
2022/11/20 05:38:49;;;;;;;13.68;8.60;;;;;;;;;;5058064;28;20045;-66
2022/11/20 05:41:16;;;;;;;11.13;8.63;;;;;;;;;;5059449;28;20103;-67
2022/11/20 05:43:43;;;;;;;11.95;9.00;;;;;;;;;;5059670;28;20052;-67
2022/11/20 05:46:11;;;;;;;13.93;9.05;;;;;;;;;;5059771;28;20056;-67
2022/11/20 05:48:37;;;;;;;13.07;8.88;;;;;;;;;;5059278;28;20060;-67
2022/11/20 05:51:04;;;;;;;14.07;9.23;;;;;;;;;;5058092;28;20044;-67
2022/11/20 05:53:32;;;;;;;12.18;8.38;;;;;;;;;;5059325;28;20051;-67
2022/11/20 05:55:59;;;;;;;12.57;9.13;;;;;;;;;;5041417;28;20051;-67
2022/11/20 05:58:25;;;;;;;13.45;9.40;;;;;;;;;;5059820;28;20039;-67
2022/11/20 06:00:51;;;;;;;11.50;8.68;;;;;;;;;;5058241;28;21222;-67
2022/11/20 06:03:17;;;;;;;14.52;9.20;;;;;;;;;;5050913;28;20163;-68
2022/11/20 06:05:44;;;;;;;13.27;9.48;;;;;;;;;;5059618;28;20071;-68
2022/11/20 06:08:10;;;;;;;14.98;9.65;;;;;;;;;;5061288;28;20047;-68
2022/11/20 06:10:36;;;;;;;15.27;10.57;;;;;;;;;;5061335;28;20052;-68
2022/11/20 06:13:02;;;;;;;16.23;10.13;;;;;;;;;;5060549;28;20045;-68
2022/11/20 06:15:28;;;;;;;15.10;10.10;;;;;;;;;;5060738;28;20052;-68
2022/11/20 06:17:55;;;;;;;13.13;9.15;;;;;;;;;;5061571;28;20052;-68
2022/11/20 06:20:21;;;;;;;14.02;10.18;;;;;;;;;;5058583;28;20051;-68
2022/11/20 06:22:47;;;;;;;16.95;11.00;;;;;;;;;;5043617;28;20138;-68
2022/11/20 06:25:14;;;;;;;14.18;10.23;;;;;;;;;;5059226;28;20112;-68
2022/11/20 06:27:40;;;;;;;15.32;10.93;;;;;;;;;;5060921;28;20044;-68
2022/11/20 06:30:06;;;;;;;15.75;10.90;;;;;;;;;;5059746;28;22281;-68
2022/11/20 06:32:33;;;;;;;16.67;11.48;;;;;;;;;;5052718;28;20194;-68
2022/11/20 06:34:59;;;;;;;18.25;12.65;;;;;;;;;;5060219;28;20523;-68
2022/11/20 06:37:25;;;;;;;16.10;11.05;;;;;;;;;;5055983;28;20540;-68
2022/11/20 06:39:51;;;;;;;15.82;11.57;;;;;;;;;;5057667;28;20073;-68
2022/11/20 06:42:17;;;;;;;16.65;11.68;;;;;;;;;;5055632;28;20478;-68
2022/11/20 06:44:43;;;;;;;17.35;10.75;;;;;;;;;;5050623;28;20119;-67
2022/11/20 06:47:09;;;;;;;15.82;11.80;;;;;;;;;;5054760;28;20053;-67
2022/11/20 06:49:36;;;;;;;15.80;12.00;;;;;;;;;;5038436;28;20144;-67
2022/11/20 06:52:04;;;;;;;16.75;12.02;;;;;;;;;;5056029;28;20049;-67
2022/11/20 06:54:30;;;;;;;15.55;11.15;;;;;;;;;;5059248;28;20044;-67
2022/11/20 06:56:56;;;;;;;17.75;12.10;;;;;;;;;;5041454;28;20040;-67
2022/11/20 06:59:22;;;;;;;17.17;12.20;;;;;;;;;;5054597;28;20044;-67
2022/11/20 07:01:48;;;;;;;15.05;10.85;;;;;;;;;;5057553;28;20508;-67
2022/11/20 07:04:14;;;;;;;16.88;11.40;;;;;;;;;;5056608;28;20048;-67
2022/11/20 07:06:41;;;;;;;15.23;10.90;;;;;;;;;;5056742;28;20410;-67
2022/11/20 07:09:07;;;;;;;17.08;11.60;;;;;;;;;;5055667;28;20044;-67
2022/11/20 07:11:33;;;;;;;15.68;11.48;;;;;;;;;;5056628;28;20103;-67
2022/11/20 07:13:59;;;;;;;15.45;10.48;;;;;;;;;;5055814;28;20040;-67
2022/11/20 07:16:25;;;;;;;15.63;11.73;;;;;;;;;;5053643;28;20087;-67
2022/11/20 07:18:51;;;;;;;16.73;11.57;;;;;;;;;;5056208;28;20091;-68
2022/11/20 07:21:17;;;;;;;14.40;10.88;;;;;;;;;;5056491;28;20048;-68
2022/11/20 07:23:43;;;;;;;14.48;11.02;;;;;;;;;;5056404;28;20562;-68
2022/11/20 07:26:10;;;;;;;17.08;11.60;;;;;;;;;;5034798;28;20044;-67
2022/11/20 07:28:37;;;;;;;14.85;10.93;;;;;;;;;;5057227;28;20045;-66
2022/11/20 07:31:03;;;;;;;16.08;10.52;;;;;;;;;;5056116;28;20028;-67
2022/11/20 07:33:30;;;;;;;19.83;11.80;;;;;;;;;;5056326;28;20589;-67
2022/11/20 07:35:56;;;;;;;15.35;9.82;;;;;;;;;;5058015;28;20132;-66
2022/11/20 07:38:22;;;;;;;16.13;10.23;;;;;;;;;;5065004;28;20048;-67
2022/11/20 07:40:48;;;;;;;15.68;11.20;;;;;;;;;;5048104;28;20064;-67
2022/11/20 07:43:14;;;;;;;19.73;11.68;;;;;;;;;;5050671;28;20106;-71
2022/11/20 07:45:40;;;;;;;15.93;11.05;;;;;;;;;;5055582;28;20054;-72
2022/11/20 07:48:07;;;;;;;15.35;11.68;;;;;;;;;;5050491;28;20120;-68
2022/11/20 07:50:33;;;;;;;19.13;12.00;;;;;;;;;;5056120;28;20040;-68
2022/11/20 07:53:05;;;;;;;17.60;12.48;;;;;;;;;;5055835;28;20048;-68
2022/11/20 07:55:32;;;;;;;21.65;14.57;;;;;;;;;;5047350;28;20055;-68
2022/11/20 07:57:58;;;;;;;19.20;13.40;;;;;;;;;;5037511;28;20052;-69
2022/11/20 08:00:25;;;;;;;22.88;13.63;;;;;;;;;;5056280;28;20103;-70
2022/11/20 08:02:51;;;;;;;26.65;16.90;;;;;;;;;;5052842;28;20107;-69
2022/11/20 08:05:17;;;;;;;19.50;13.77;;;;;;;;;;5055481;28;20060;-71
2022/11/20 08:07:43;;;;;;;17.58;13.90;;;;;;;;;;5054902;28;20086;-70
2022/11/20 08:10:11;;;;;;;16.17;12.15;;;;;;;;;;5057401;28;20042;-68
2022/11/20 08:15:28;;;;;;;16.63;11.52;;;;;;;;;;5058203;28;20839;-68
2022/11/20 08:17:59;;;;;;;15.35;10.73;;;;;;;;;;5057089;28;20639;-68
2022/11/20 08:20:25;;;;;;;15.15;11.55;;;;;;;;;;5054219;28;20487;-68
2022/11/20 08:22:51;;;;;;;15.27;10.73;;;;;;;;;;5057501;28;20036;-68
2022/11/20 08:25:17;;;;;;;15.70;11.30;;;;;;;;;;5055904;28;20048;-68
2022/11/20 08:27:45;;;;;;;15.00;10.23;;;;;;;;;;5055481;28;20052;-68
2022/11/20 08:30:11;;;;;;;15.02;10.60;;;;;;;;;;5054321;28;20048;-68
2022/11/20 08:32:37;;;;;;;16.00;10.48;;;;;;;;;;5056665;28;20044;-68
2022/11/20 08:35:03;;;;;;;14.77;10.45;;;;;;;;;;5058708;28;20101;-69
2022/11/20 08:37:29;;;;;;;15.90;11.15;;;;;;;;;;5057647;28;20054;-69
2022/11/20 08:39:56;;;;;;;15.43;12.00;;;;;;;;;;5057964;28;20052;-68
2022/11/20 08:42:23;;;;;;;15.52;9.82;;;;;;;;;;5057974;28;20087;-69
2022/11/20 08:44:49;;;;;;;15.40;10.88;;;;;;;;;;5058913;28;20049;-68
2022/11/20 08:47:15;;;;;;;14.88;10.60;;;;;;;;;;5055879;28;20071;-68
2022/11/20 08:49:41;;;;;;;15.43;10.75;;;;;;;;;;5056025;28;20048;-68
2022/11/20 08:52:07;;;;;;;14.45;10.85;;;;;;;;;;5058409;28;20068;-69
2022/11/20 08:54:33;;;;;;;17.17;12.38;;;;;;;;;;5058905;28;20048;-69
2022/11/20 08:56:59;;;;;;;17.77;12.95;;;;;;;;;;5058167;28;20066;-69
2022/11/20 08:59:25;;;;;;;20.30;14.18;;;;;;;;;;5056463;28;20103;-69
2022/11/20 09:01:51;;;;;;;20.60;15.07;;;;;;;;;;5058575;28;20036;-69
2022/11/20 09:04:17;;;;;;;19.08;12.98;;;;;;;;;;5056605;28;20072;-68
2022/11/20 09:06:43;;;;;;;16.40;12.10;;;;;;;;;;5057556;28;20052;-69
2022/11/20 09:09:09;;;;;;;14.63;11.10;;;;;;;;;;5057276;28;20056;-68
2022/11/20 09:11:36;;;;;;;13.02;10.23;;;;;;;;;;5055330;28;20569;-68
2022/11/20 09:14:02;;;;;;;12.48;9.60;;;;;;;;;;5058989;28;20036;-68
2022/11/20 09:16:28;;;;;;;13.15;9.77;;;;;;;;;;5057491;28;20242;-69
2022/11/20 09:18:54;;;;;;;10.93;8.32;;;;;;;;;;5059455;28;20055;-68
2022/11/20 09:21:22;;;;;;;12.45;9.25;;;;;;;;;;5055494;28;20059;-68
2022/11/20 09:23:48;;;;;;;13.70;8.73;;;;;;;;;;5052784;28;20719;-68
2022/11/20 09:26:14;;;;;;;13.68;9.90;;;;;;;;;;5054389;28;20075;-68
2022/11/20 09:28:40;;;;;;;13.63;8.68;;;;;;;;;;5055003;28;20098;-67
2022/11/20 09:31:07;;;;;;;11.90;8.80;;;;;;;;;;5055823;28;20045;-67
2022/11/20 09:33:33;;;;;;;11.38;8.75;;;;;;;;;;5056211;28;20068;-68
2022/11/20 09:35:59;;;;;;;9.68;6.90;;;;;;;;;;5055781;28;20057;-67
2022/11/20 09:38:25;;;;;;;13.13;9.93;;;;;;;;;;5057106;28;20075;-67
2022/11/20 09:40:58;;;;;;;11.88;8.50;;;;;;;;;;5058387;28;20040;-67
2022/11/20 09:43:24;;;;;;;13.10;8.75;;;;;;;;;;5055511;28;20052;-68
2022/11/20 09:45:50;;;;;;;10.85;8.15;;;;;;;;;;5054984;28;20049;-70
2022/11/20 09:48:26;;;;;;;11.90;8.60;;;;;;;;;;5057092;28;20049;-70
2022/11/20 09:50:59;;;;;;;13.02;9.50;;;;;;;;;;5056763;28;20056;-70
2022/11/20 09:53:34;;;;;;;14.18;8.65;;;;;;;;;;5055477;28;20055;-68
2022/11/20 09:56:02;;;;;;;12.60;8.82;;;;;;;;;;5057082;28;20488;-68
2022/11/20 09:58:49;;;;;;;12.35;9.40;;;;;;;;;;5055886;28;20052;-68
2022/11/20 10:01:15;;;;;;;11.27;8.82;;;;;;;;;;5058224;28;20077;-68
2022/11/20 10:03:50;;;;;;;12.15;9.85;;;;;;;;;;5053536;28;20067;-68
2022/11/20 10:06:18;;;;;;;11.18;8.88;;;;;;;;;;5042268;28;20051;-68
2022/11/20 10:08:44;;;;;;;10.65;8.63;;;;;;;;;;5067044;28;20044;-68
2022/11/20 10:11:13;;;;;;;12.60;8.85;;;;;;;;;;5057197;28;20055;-68
2022/11/20 10:14:12;;;;;;;13.05;9.48;;;;;;;;;;5058735;28;20100;-70
2022/11/20 10:16:51;;;;;;;11.65;9.00;;;;;;;;;;5032808;28;20076;-70
2022/11/20 10:19:23;;;;;;;12.75;9.35;;;;;;;;;;5059724;28;20071;-69
2022/11/20 10:22:05;;;;;;;11.93;8.45;;;;;;;;;;5056672;28;20693;-69
2022/11/20 10:24:31;;;;;;;13.15;9.00;;;;;;;;;;5056804;28;20056;-69
2022/11/20 10:27:04;;;;;;;11.90;9.48;;;;;;;;;;5058029;28;20083;-69
2022/11/20 10:29:33;;;;;;;13.15;9.98;;;;;;;;;;5066842;28;20082;-70
2022/11/20 10:32:29;;;;;;;16.60;10.10;;;;;;;;;;5059101;28;20048;-70
2022/11/20 10:34:58;;;;;;;12.70;10.30;;;;;;;;;;5046199;28;20147;-70
2022/11/20 10:37:28;;;;;;;14.30;11.05;;;;;;;;;;5056884;28;20123;-70
2022/11/20 10:40:12;;;;;;;14.45;10.75;;;;;;;;;;5059935;28;20156;-69
2022/11/20 10:42:43;;;;;;;12.73;9.50;;;;;;;;;;5055408;28;20083;-70
2022/11/20 10:45:24;;;;;;;14.60;10.35;;;;;;;;;;5052699;28;20040;-68
2022/11/20 10:47:51;;;;;;;13.93;9.60;;;;;;;;;;5057337;28;20053;-69
2022/11/20 10:50:22;;;;;;;12.18;9.70;;;;;;;;;;5049454;28;20290;-69
2022/11/20 10:52:57;;;;;;;13.50;9.30;;;;;;;;;;5046822;28;20641;-69
2022/11/20 10:55:41;;;;;;;11.30;9.52;;;;;;;;;;5046994;28;20074;-69
2022/11/20 10:58:07;;;;;;;;;;;;;;;;;;5029857;28;20084;-69
2022/11/20 11:00:33;;;;;;;11.10;8.57;;;;;;;;;;5049236;28;20635;-69
2022/11/20 11:03:03;;;;;;;12.10;9.07;;;;;;;;;;5050791;28;20090;-68
2022/11/20 11:05:38;;;;;;;14.00;9.60;;;;;;;;;;5048868;28;20044;-69
2022/11/20 11:08:05;;;;;;;16.77;9.02;;;;;;;;;;5053929;28;20067;-69
2022/11/20 11:10:42;;;;;;;15.95;8.70;;;;;;;;;;5056039;28;20078;-69
2022/11/20 11:13:19;;;;;;;12.93;8.98;;;;;;;;;;5051020;28;20041;-69
2022/11/20 11:15:45;;;;;;;10.77;8.52;;;;;;;;;;5049568;28;20459;-69
2022/11/20 11:18:12;;;;;;;14.05;9.40;;;;;;;;;;5050927;28;20091;-70
2022/11/20 11:20:38;;;;;;;12.45;8.88;;;;;;;;;;5053115;28;20052;-69
2022/11/20 11:23:04;;;;;;;15.48;8.82;;;;;;;;;;5050939;28;20055;-69
2022/11/20 11:25:34;;;;;;;12.52;9.00;;;;;;;;;;5055086;28;20040;-70
2022/11/20 11:28:02;;;;;;;11.27;9.10;;;;;;;;;;5054460;28;20051;-70
2022/11/20 11:30:30;;;;;;;10.60;8.43;;;;;;;;;;5053934;28;20075;-70
2022/11/20 11:33:05;;;;;;;10.80;8.32;;;;;;;;;;5034152;28;20457;-71
2022/11/20 11:35:31;;;;;;;12.50;8.10;;;;;;;;;;5053772;28;20037;-70
2022/11/20 11:38:07;;;;;;;11.13;8.77;;;;;;;;;;5053360;28;20072;-69
2022/11/20 11:40:35;;;;;;;10.55;8.82;;;;;;;;;;5042563;28;20052;-70
2022/11/20 11:43:02;;;;;;;12.32;9.30;;;;;;;;;;5046207;28;20044;-69
2022/11/20 11:45:29;;;;;;;10.75;8.43;;;;;;;;;;5047327;28;20055;-68
2022/11/20 11:47:57;;;;;;;10.43;8.32;;;;;;;;;;5048084;28;20058;-68
2022/11/20 11:50:27;;;;;;;10.20;7.95;;;;;;;;;;5049201;28;20045;-66
2022/11/20 11:53:02;;;;;;;13.02;8.30;;;;;;;;;;5043595;28;20131;-67
2022/11/20 11:55:47;;;;;;;8.77;6.93;;;;;;;;;;5058007;28;20037;-68
2022/11/20 11:58:13;;;;;;;;;;;;;;;;;;5048498;28;20087;-68
2022/11/20 12:00:41;;;;;;;9.80;7.90;;;;;;;;;;5040135;28;20119;-70
2022/11/20 12:03:07;;;;;;;10.75;7.95;;;;;;;;;;5047000;28;20067;-68
2022/11/20 12:05:39;;;;;;;12.00;8.35;;;;;;;;;;5044020;28;20049;-69
2022/11/20 12:08:14;;;;;;;8.93;7.07;;;;;;;;;;5048259;28;20033;-69
2022/11/20 12:10:50;;;;;;;11.38;7.28;;;;;;;;;;5043852;28;20052;-66
2022/11/20 12:13:43;;;;;;;9.05;7.45;;;;;;;;;;5045314;28;20049;-67
2022/11/20 12:16:12;;;;;;;9.90;7.15;;;;;;;;;;5027750;28;20060;-67
2022/11/20 12:18:39;;;;;;;9.60;7.22;;;;;;;;;;5047323;28;20044;-67
2022/11/20 12:21:16;;;;;;;9.27;7.55;;;;;;;;;;5047078;28;20079;-67
2022/11/20 12:24:01;;;;;;;12.30;7.70;;;;;;;;;;5044222;28;21356;-66
2022/11/20 12:26:28;;;;;;;10.82;8.00;;;;;;;;;;5044679;28;20174;-67
2022/11/20 12:29:03;;;;;;;10.50;8.00;;;;;;;;;;5045282;28;20063;-67
2022/11/20 12:31:35;;;;;;;9.88;7.70;;;;;;;;;;5041488;28;20135;-66
2022/11/20 12:34:14;;;;;;;9.80;7.70;;;;;;;;;;5044833;28;20052;-66
2022/11/20 12:36:59;;;;;;;13.05;7.05;;;;;;;;;;5043469;28;20062;-66
2022/11/20 12:39:41;;;;;;;13.77;7.53;;;;;;;;;;5040116;28;20768;-66
2022/11/20 12:45:31;;;;;;;11.68;8.48;;;;;;;;;;5057543;28;20051;-66
2022/11/20 12:47:57;;;;;;;12.98;9.57;;;;;;;;;;5008448;28;20049;-66
2022/11/20 12:50:42;;;;;;;12.27;8.93;;;;;;;;;;5055615;28;20074;-66
2022/11/20 12:53:10;;;;;;;10.38;8.40;;;;;;;;;;5056816;28;20064;-66
2022/11/20 12:55:43;;;;;;;11.88;9.00;;;;;;;;;;5056171;28;20048;-66
2022/11/20 12:58:24;;;;;;;13.50;9.30;;;;;;;;;;5051914;28;20660;-66
2022/11/20 13:00:57;;;;;;;16.05;9.43;;;;;;;;;;5054512;28;20040;-66
2022/11/20 13:03:38;;;;;;;11.27;8.90;;;;;;;;;;5052104;28;20062;-67
2022/11/20 13:06:17;;;;;;;12.27;8.93;;;;;;;;;;5054965;28;20147;-66
2022/11/20 13:08:54;;;;;;;12.00;8.45;;;;;;;;;;5053137;28;20113;-66
2022/11/20 13:11:25;;;;;;;12.02;8.43;;;;;;;;;;5052571;28;20044;-67
2022/11/20 13:14:00;;;;;;;9.63;7.60;;;;;;;;;;5033607;28;20079;-66
2022/11/20 13:16:35;;;;;;;12.88;8.95;;;;;;;;;;5051300;28;20063;-66
2022/11/20 13:19:02;;;;;;;9.57;7.22;;;;;;;;;;5051975;28;20048;-66
2022/11/20 13:21:39;;;;;;;12.23;8.40;;;;;;;;;;5052047;28;20042;-67
2022/11/20 13:24:27;;;;;;;11.20;7.88;;;;;;;;;;5052931;28;20052;-67
2022/11/20 13:27:05;;;;;;;10.75;8.52;;;;;;;;;;5054031;28;20056;-67
2022/11/20 13:29:32;;;;;;;11.20;8.02;;;;;;;;;;5052492;28;20071;-66
2022/11/20 13:32:04;;;;;;;13.40;8.73;;;;;;;;;;5052693;28;20138;-67
2022/11/20 13:34:30;;;;;;;10.95;8.63;;;;;;;;;;5055250;28;20051;-67
2022/11/20 13:36:57;;;;;;;12.50;9.15;;;;;;;;;;5062571;28;20051;-67
2022/11/20 13:39:27;;;;;;;10.13;7.50;;;;;;;;;;5057095;28;20058;-67
2022/11/20 13:42:17;;;;;;;16.42;12.73;;;;;;;;;;5056604;28;20056;-67
2022/11/20 13:44:44;;;;;;;12.57;9.73;;;;;;;;;;5048167;28;20061;-67
2022/11/20 13:47:27;;;;;;;18.50;14.35;;;;;;;;;;5057771;28;20068;-66
2022/11/20 13:49:54;;;;;;;17.30;12.95;;;;;;;;;;5058840;28;20056;-66
2022/11/20 13:52:20;;;;;;;13.38;10.38;;;;;;;;;;5056770;28;20070;-67
2022/11/20 13:55:04;;;;;;;11.40;9.32;;;;;;;;;;5048183;28;20040;-67
2022/11/20 13:57:30;;;;;;;14.43;10.25;;;;;;;;;;5055884;28;20056;-66
2022/11/20 14:00:10;;;;;;;10.70;7.78;;;;;;;;;;5057764;28;20052;-67
2022/11/20 14:02:36;;;;;;;13.20;10.05;;;;;;;;;;5055981;28;20763;-67
2022/11/20 14:05:04;;;;;;;12.85;9.80;;;;;;;;;;5056872;28;20041;-66
2022/11/20 14:07:36;;;;;;;17.02;13.73;;;;;;;;;;5057498;28;20083;-67
2022/11/20 14:10:02;;;;;;;9.93;7.95;;;;;;;;;;5057426;28;20047;-67
2022/11/20 14:12:30;;;;;;;15.55;11.35;;;;;;;;;;5054986;28;21022;-66
2022/11/20 14:14:56;;;;;;;12.07;7.85;;;;;;;;;;5057884;28;20048;-67
2022/11/20 14:17:25;;;;;;;10.30;8.30;;;;;;;;;;5055265;28;20041;-66
2022/11/20 14:19:52;;;;;;;13.35;8.85;;;;;;;;;;5057532;28;20045;-67
2022/11/20 14:22:22;;;;;;;9.98;7.68;;;;;;;;;;5056435;28;20049;-67
2022/11/20 14:24:49;;;;;;;11.40;7.50;;;;;;;;;;5056478;28;20044;-67
2022/11/20 14:27:20;;;;;;;10.40;8.15;;;;;;;;;;5057354;28;20052;-67
2022/11/20 14:29:47;;;;;;;11.05;8.13;;;;;;;;;;5055283;28;20049;-67
2022/11/20 14:32:16;;;;;;;13.20;9.45;;;;;;;;;;5054648;28;21393;-67
2022/11/20 14:34:43;;;;;;;13.10;9.13;;;;;;;;;;5056184;28;20052;-67
2022/11/20 14:37:13;;;;;;;14.88;10.80;;;;;;;;;;5055756;28;20066;-67
2022/11/20 14:39:48;;;;;;;13.70;9.25;;;;;;;;;;5057604;28;20539;-68
2022/11/20 14:42:18;;;;;;;10.02;8.50;;;;;;;;;;5055986;28;20072;-69
2022/11/20 14:44:45;;;;;;;11.88;7.85;;;;;;;;;;5057764;28;20142;-68